sensor_id;sensor_type;location;lat;lon;timestamp;pressure;altitude;pressure_sealevel;temperature;humidity
57038;BME280;59942;49.304;8.256;2022-08-24T00:01:54;100366.53;;;22.08;44.40
57038;BME280;59942;49.304;8.256;2022-08-24T00:04:24;100363.59;;;22.40;43.78
57038;BME280;59942;49.304;8.256;2022-08-24T00:06:53;100356.59;;;22.49;43.51
57038;BME280;59942;49.304;8.256;2022-08-24T00:09:23;100364.31;;;22.32;43.88
57038;BME280;59942;49.304;8.256;2022-08-24T00:11:51;100367.63;;;22.34;44.26
57038;BME280;59942;49.304;8.256;2022-08-24T00:14:21;100365.03;;;22.72;42.78
57038;BME280;59942;49.304;8.256;2022-08-24T00:16:49;100365.03;;;22.72;43.78
57038;BME280;59942;49.304;8.256;2022-08-24T00:19:19;100366.06;;;22.89;42.83
57038;BME280;59942;49.304;8.256;2022-08-24T00:21:48;100364.47;;;22.78;43.09
57038;BME280;59942;49.304;8.256;2022-08-24T00:24:17;100373.84;;;22.90;42.94
57038;BME280;59942;49.304;8.256;2022-08-24T00:26:45;100345.38;;;22.37;43.34
57038;BME280;59942;49.304;8.256;2022-08-24T00:29:14;100338.69;;;22.43;43.53
57038;BME280;59942;49.304;8.256;2022-08-24T00:31:46;100364.06;;;22.63;43.25
57038;BME280;59942;49.304;8.256;2022-08-24T00:34:14;100366.19;;;22.60;43.43
57038;BME280;59942;49.304;8.256;2022-08-24T00:36:44;100369.09;;;22.66;43.26
57038;BME280;59942;49.304;8.256;2022-08-24T00:39:12;100371.69;;;22.76;43.39
57038;BME280;59942;49.304;8.256;2022-08-24T00:44:10;100364.16;;;22.81;42.97
57038;BME280;59942;49.304;8.256;2022-08-24T00:46:47;100369.91;;;22.77;43.32
57038;BME280;59942;49.304;8.256;2022-08-24T00:49:36;100369.91;;;22.77;43.54
57038;BME280;59942;49.304;8.256;2022-08-24T00:54:43;100372.91;;;22.82;43.80
57038;BME280;59942;49.304;8.256;2022-08-24T00:57:17;100366.69;;;22.73;43.98
57038;BME280;59942;49.304;8.256;2022-08-24T00:59:55;100373.81;;;22.63;44.14
57038;BME280;59942;49.304;8.256;2022-08-24T01:02:26;100381.53;;;22.36;44.66
57038;BME280;59942;49.304;8.256;2022-08-24T01:05:04;100382.50;;;22.35;44.89
57038;BME280;59942;49.304;8.256;2022-08-24T01:07:33;100372.63;;;22.28;46.14
57038;BME280;59942;49.304;8.256;2022-08-24T01:10:11;100371.25;;;22.24;45.04
57038;BME280;59942;49.304;8.256;2022-08-24T01:12:42;100374.72;;;22.24;44.88
57038;BME280;59942;49.304;8.256;2022-08-24T01:15:28;100379.31;;;22.22;45.48
57038;BME280;59942;49.304;8.256;2022-08-24T01:17:56;100372.94;;;22.05;45.96
57038;BME280;59942;49.304;8.256;2022-08-24T01:20:49;100384.09;;;21.39;47.63
57038;BME280;59942;49.304;8.256;2022-08-24T01:26:11;100384.47;;;21.75;46.28
57038;BME280;59942;49.304;8.256;2022-08-24T01:28:44;100382.38;;;21.78;46.02
57038;BME280;59942;49.304;8.256;2022-08-24T01:31:17;100380.16;;;21.83;46.02
57038;BME280;59942;49.304;8.256;2022-08-24T01:33:50;100383.50;;;21.85;45.84
57038;BME280;59942;49.304;8.256;2022-08-24T01:36:21;100382.66;;;21.85;45.68
57038;BME280;59942;49.304;8.256;2022-08-24T01:38:55;100372.53;;;21.61;45.75
57038;BME280;59942;49.304;8.256;2022-08-24T01:41:24;100376.56;;;21.24;46.60
57038;BME280;59942;49.304;8.256;2022-08-24T01:43:55;100377.28;;;20.95;47.76
57038;BME280;59942;49.304;8.256;2022-08-24T01:46:23;100384.69;;;21.11;47.29
57038;BME280;59942;49.304;8.256;2022-08-24T01:48:51;100375.16;;;21.10;47.05
57038;BME280;59942;49.304;8.256;2022-08-24T01:51:18;100373.44;;;20.69;47.74
57038;BME280;59942;49.304;8.256;2022-08-24T01:53:46;100368.91;;;20.59;48.21
57038;BME280;59942;49.304;8.256;2022-08-24T01:56:15;100374.44;;;20.56;48.58
57038;BME280;59942;49.304;8.256;2022-08-24T01:58:47;100385.91;;;20.45;48.90
57038;BME280;59942;49.304;8.256;2022-08-24T02:01:15;100345.97;;;19.54;50.19
57038;BME280;59942;49.304;8.256;2022-08-24T02:03:46;100375.25;;;19.50;50.47
57038;BME280;59942;49.304;8.256;2022-08-24T02:06:20;100379.88;;;19.69;50.60
57038;BME280;59942;49.304;8.256;2022-08-24T02:08:47;100368.84;;;20.07;49.40
57038;BME280;59942;49.304;8.256;2022-08-24T02:11:14;100378.03;;;20.13;48.61
57038;BME280;59942;49.304;8.256;2022-08-24T02:13:44;100377.84;;;20.05;48.32
57038;BME280;59942;49.304;8.256;2022-08-24T02:16:12;100379.66;;;20.25;48.79
57038;BME280;59942;49.304;8.256;2022-08-24T02:18:41;100385.78;;;20.47;48.27
57038;BME280;59942;49.304;8.256;2022-08-24T02:21:10;100409.22;;;19.41;50.21
57038;BME280;59942;49.304;8.256;2022-08-24T02:23:41;100417.97;;;17.03;59.12
57038;BME280;59942;49.304;8.256;2022-08-24T02:26:11;100394.47;;;17.64;57.51
57038;BME280;59942;49.304;8.256;2022-08-24T02:28:39;100398.69;;;18.85;53.97
57038;BME280;59942;49.304;8.256;2022-08-24T02:31:10;100418.31;;;18.45;54.12
57038;BME280;59942;49.304;8.256;2022-08-24T02:33:39;100391.22;;;18.33;55.17
57038;BME280;59942;49.304;8.256;2022-08-24T02:36:09;100406.22;;;19.46;52.34
57038;BME280;59942;49.304;8.256;2022-08-24T02:38:54;100407.44;;;19.08;53.32
57038;BME280;59942;49.304;8.256;2022-08-24T02:41:25;100409.41;;;19.61;51.87
57038;BME280;59942;49.304;8.256;2022-08-24T02:43:54;100394.09;;;19.11;51.88
57038;BME280;59942;49.304;8.256;2022-08-24T02:46:27;100400.34;;;19.54;51.47
57038;BME280;59942;49.304;8.256;2022-08-24T02:48:58;100407.22;;;19.89;50.92
57038;BME280;59942;49.304;8.256;2022-08-24T02:51:38;100410.78;;;20.20;50.24
57038;BME280;59942;49.304;8.256;2022-08-24T02:54:12;100403.88;;;20.40;49.50
57038;BME280;59942;49.304;8.256;2022-08-24T02:56:44;100409.50;;;20.57;49.02
57038;BME280;59942;49.304;8.256;2022-08-24T02:59:13;100411.59;;;20.53;48.88
57038;BME280;59942;49.304;8.256;2022-08-24T03:01:41;100415.09;;;20.63;48.63
57038;BME280;59942;49.304;8.256;2022-08-24T03:04:08;100408.03;;;20.64;48.87
57038;BME280;59942;49.304;8.256;2022-08-24T03:06:36;100404.44;;;20.65;48.62
57038;BME280;59942;49.304;8.256;2022-08-24T03:09:04;100418.38;;;20.67;48.73
57038;BME280;59942;49.304;8.256;2022-08-24T03:11:37;100418.78;;;20.72;48.45
57038;BME280;59942;49.304;8.256;2022-08-24T03:14:08;100418.94;;;20.71;48.90
57038;BME280;59942;49.304;8.256;2022-08-24T03:16:36;100405.91;;;20.58;49.16
57038;BME280;59942;49.304;8.256;2022-08-24T03:19:06;100383.59;;;20.31;48.95
57038;BME280;59942;49.304;8.256;2022-08-24T03:21:33;100413.31;;;20.43;49.23
57038;BME280;59942;49.304;8.256;2022-08-24T03:24:00;100411.56;;;20.11;49.77
57038;BME280;59942;49.304;8.256;2022-08-24T03:26:31;100423.09;;;19.21;51.53
57038;BME280;59942;49.304;8.256;2022-08-24T03:29:02;100377.09;;;18.81;52.36
57038;BME280;59942;49.304;8.256;2022-08-24T03:31:34;100427.06;;;19.04;52.43
57038;BME280;59942;49.304;8.256;2022-08-24T03:34:02;100431.22;;;19.29;51.65
57038;BME280;59942;49.304;8.256;2022-08-24T03:36:29;100424.06;;;19.20;51.92
57038;BME280;59942;49.304;8.256;2022-08-24T03:38:57;100432.19;;;19.17;51.41
57038;BME280;59942;49.304;8.256;2022-08-24T03:41:27;100431.09;;;19.19;51.54
57038;BME280;59942;49.304;8.256;2022-08-24T03:43:54;100426.69;;;19.31;51.04
57038;BME280;59942;49.304;8.256;2022-08-24T03:46:25;100430.03;;;18.88;51.90
57038;BME280;59942;49.304;8.256;2022-08-24T03:48:56;100406.13;;;18.44;52.65
57038;BME280;59942;49.304;8.256;2022-08-24T03:51:26;100434.84;;;18.70;52.75
57038;BME280;59942;49.304;8.256;2022-08-24T03:53:56;100424.88;;;18.86;52.30
57038;BME280;59942;49.304;8.256;2022-08-24T03:56:25;100424.88;;;19.09;51.20
57038;BME280;59942;49.304;8.256;2022-08-24T03:58:54;100436.97;;;19.23;50.72
57038;BME280;59942;49.304;8.256;2022-08-24T04:01:22;100426.19;;;19.15;50.85
57038;BME280;59942;49.304;8.256;2022-08-24T04:03:50;100436.34;;;19.31;50.58
57038;BME280;59942;49.304;8.256;2022-08-24T04:06:20;100444.34;;;19.40;50.58
57038;BME280;59942;49.304;8.256;2022-08-24T04:08:48;100400.84;;;18.80;51.70
57038;BME280;59942;49.304;8.256;2022-08-24T04:11:21;100432.19;;;19.17;51.04
57038;BME280;59942;49.304;8.256;2022-08-24T04:13:51;100436.09;;;19.34;50.63
57038;BME280;59942;49.304;8.256;2022-08-24T04:16:20;100430.16;;;19.20;50.76
57038;BME280;59942;49.304;8.256;2022-08-24T04:18:48;100432.44;;;18.55;52.88
57038;BME280;59942;49.304;8.256;2022-08-24T04:21:35;100431.44;;;19.03;51.45
57038;BME280;59942;49.304;8.256;2022-08-24T04:24:07;100436.59;;;19.39;50.28
57038;BME280;59942;49.304;8.256;2022-08-24T04:26:36;100440.91;;;19.40;50.37
57038;BME280;59942;49.304;8.256;2022-08-24T04:29:15;100439.59;;;19.46;51.04
57038;BME280;59942;49.304;8.256;2022-08-24T04:31:46;100434.09;;;19.37;49.80
57038;BME280;59942;49.304;8.256;2022-08-24T04:34:14;100438.16;;;19.41;49.74
57038;BME280;59942;49.304;8.256;2022-08-24T04:36:45;100438.28;;;19.29;50.03
57038;BME280;59942;49.304;8.256;2022-08-24T04:39:13;100439.94;;;19.30;50.13
57038;BME280;59942;49.304;8.256;2022-08-24T04:41:40;100435.28;;;19.22;50.76
57038;BME280;59942;49.304;8.256;2022-08-24T04:44:08;100449.03;;;19.14;51.40
57038;BME280;59942;49.304;8.256;2022-08-24T04:46:38;100450.56;;;19.05;51.34
57038;BME280;59942;49.304;8.256;2022-08-24T04:49:10;100446.84;;;19.19;50.79
57038;BME280;59942;49.304;8.256;2022-08-24T04:51:37;100451.78;;;19.13;50.69
57038;BME280;59942;49.304;8.256;2022-08-24T04:54:09;100452.97;;;19.08;51.05
57038;BME280;59942;49.304;8.256;2022-08-24T04:56:36;100453.91;;;18.96;51.58
57038;BME280;59942;49.304;8.256;2022-08-24T04:59:06;100463.81;;;19.26;51.00
57038;BME280;59942;49.304;8.256;2022-08-24T05:01:36;100458.31;;;19.30;50.91
57038;BME280;59942;49.304;8.256;2022-08-24T05:04:03;100457.38;;;19.31;51.04
57038;BME280;59942;49.304;8.256;2022-08-24T05:06:31;100456.06;;;19.36;50.56
57038;BME280;59942;49.304;8.256;2022-08-24T05:08:59;100475.16;;;19.50;50.67
57038;BME280;59942;49.304;8.256;2022-08-24T05:11:27;100470.63;;;19.63;50.37
57038;BME280;59942;49.304;8.256;2022-08-24T05:13:58;100472.53;;;19.50;50.78
57038;BME280;59942;49.304;8.256;2022-08-24T05:16:26;100486.75;;;19.70;50.08
57038;BME280;59942;49.304;8.256;2022-08-24T05:18:56;100473.59;;;19.58;50.59
57038;BME280;59942;49.304;8.256;2022-08-24T05:21:26;100478.28;;;19.66;50.39
57038;BME280;59942;49.304;8.256;2022-08-24T05:23:54;100478.19;;;19.79;49.84
57038;BME280;59942;49.304;8.256;2022-08-24T05:26:24;100485.31;;;19.77;49.93
57038;BME280;59942;49.304;8.256;2022-08-24T05:28:56;100475.41;;;19.69;50.00
57038;BME280;59942;49.304;8.256;2022-08-24T05:31:27;100476.84;;;19.73;50.11
57038;BME280;59942;49.304;8.256;2022-08-24T05:33:54;100477.66;;;19.74;49.67
57038;BME280;59942;49.304;8.256;2022-08-24T05:36:27;100469.56;;;19.43;50.40
57038;BME280;59942;49.304;8.256;2022-08-24T05:38:57;100466.94;;;19.43;51.36
57038;BME280;59942;49.304;8.256;2022-08-24T05:41:24;100473.41;;;19.39;50.78
57038;BME280;59942;49.304;8.256;2022-08-24T05:43:52;100482.13;;;19.39;51.14
57038;BME280;59942;49.304;8.256;2022-08-24T05:46:19;100487.84;;;19.44;51.26
57038;BME280;59942;49.304;8.256;2022-08-24T05:48:47;100487.00;;;19.55;51.18
57038;BME280;59942;49.304;8.256;2022-08-24T05:51:19;100490.25;;;19.59;49.93
57038;BME280;59942;49.304;8.256;2022-08-24T05:53:46;100493.22;;;19.66;50.21
57038;BME280;59942;49.304;8.256;2022-08-24T05:56:17;100492.75;;;19.83;50.15
57038;BME280;59942;49.304;8.256;2022-08-24T05:58:48;100491.41;;;19.89;49.56
57038;BME280;59942;49.304;8.256;2022-08-24T06:01:18;100493.22;;;19.88;49.59
57038;BME280;59942;49.304;8.256;2022-08-24T06:03:48;100465.72;;;19.58;49.99
57038;BME280;59942;49.304;8.256;2022-08-24T06:06:18;100496.47;;;19.81;50.12
57038;BME280;59942;49.304;8.256;2022-08-24T06:08:48;100504.47;;;19.90;49.70
57038;BME280;59942;49.304;8.256;2022-08-24T06:11:26;100462.88;;;19.61;49.52
57038;BME280;59942;49.304;8.256;2022-08-24T06:13:59;100493.44;;;19.97;50.51
57038;BME280;59942;49.304;8.256;2022-08-24T06:16:27;100497.09;;;20.17;49.49
57038;BME280;59942;49.304;8.256;2022-08-24T06:18:55;100478.63;;;20.28;48.79
57038;BME280;59942;49.304;8.256;2022-08-24T06:21:29;100487.69;;;20.35;48.51
57038;BME280;59942;49.304;8.256;2022-08-24T06:24:00;100489.69;;;20.43;49.03
57038;BME280;59942;49.304;8.256;2022-08-24T06:26:30;100490.69;;;20.30;49.55
57038;BME280;59942;49.304;8.256;2022-08-24T06:29:21;100482.69;;;20.53;46.54
57038;BME280;59942;49.304;8.256;2022-08-24T06:31:54;100491.28;;;20.67;47.27
57038;BME280;59942;49.304;8.256;2022-08-24T06:34:23;100486.91;;;20.77;47.38
57038;BME280;59942;49.304;8.256;2022-08-24T06:36:54;100495.94;;;20.74;46.87
57038;BME280;59942;49.304;8.256;2022-08-24T06:39:24;100495.50;;;21.00;47.10
57038;BME280;59942;49.304;8.256;2022-08-24T06:41:54;100495.25;;;21.03;45.56
57038;BME280;59942;49.304;8.256;2022-08-24T06:44:21;100506.03;;;21.21;45.04
57038;BME280;59942;49.304;8.256;2022-08-24T06:46:52;100512.22;;;21.41;45.71
57038;BME280;59942;49.304;8.256;2022-08-24T06:49:20;100511.66;;;21.38;44.26
57038;BME280;59942;49.304;8.256;2022-08-24T06:51:53;100506.94;;;21.41;43.92
57038;BME280;59942;49.304;8.256;2022-08-24T06:54:23;100504.69;;;21.58;45.65
57038;BME280;59942;49.304;8.256;2022-08-24T06:56:53;100505.94;;;21.54;45.39
57038;BME280;59942;49.304;8.256;2022-08-24T06:59:25;100480.03;;;21.78;44.12
57038;BME280;59942;49.304;8.256;2022-08-24T07:01:55;100510.47;;;21.21;47.51
57038;BME280;59942;49.304;8.256;2022-08-24T07:04:23;100490.97;;;21.64;46.85
57038;BME280;59942;49.304;8.256;2022-08-24T07:06:54;100524.13;;;22.27;44.56
57038;BME280;59942;49.304;8.256;2022-08-24T07:09:21;100512.19;;;22.62;44.91
57038;BME280;59942;49.304;8.256;2022-08-24T07:11:53;100517.47;;;22.91;42.94
57038;BME280;59942;49.304;8.256;2022-08-24T07:14:20;100513.03;;;22.72;45.28
57038;BME280;59942;49.304;8.256;2022-08-24T07:16:51;100516.53;;;22.53;45.58
57038;BME280;59942;49.304;8.256;2022-08-24T07:19:18;100519.00;;;21.65;43.46
57038;BME280;59942;49.304;8.256;2022-08-24T07:21:45;100518.09;;;21.76;44.23
57038;BME280;59942;49.304;8.256;2022-08-24T07:24:16;100499.00;;;22.62;45.05
57038;BME280;59942;49.304;8.256;2022-08-24T07:26:47;100523.84;;;23.46;40.42
57038;BME280;59942;49.304;8.256;2022-08-24T07:29:14;100526.59;;;23.06;44.95
57038;BME280;59942;49.304;8.256;2022-08-24T07:32:02;100523.94;;;23.91;43.01
57038;BME280;59942;49.304;8.256;2022-08-24T07:34:29;100520.63;;;24.43;42.84
57038;BME280;59942;49.304;8.256;2022-08-24T07:36:57;100521.34;;;24.64;41.14
57038;BME280;59942;49.304;8.256;2022-08-24T07:39:26;100519.28;;;24.57;41.96
57038;BME280;59942;49.304;8.256;2022-08-24T07:41:56;100522.59;;;24.23;38.89
57038;BME280;59942;49.304;8.256;2022-08-24T07:44:40;100505.19;;;24.39;41.81
57038;BME280;59942;49.304;8.256;2022-08-24T07:47:07;100523.41;;;25.30;41.38
57038;BME280;59942;49.304;8.256;2022-08-24T07:49:57;100524.94;;;25.68;40.25
57038;BME280;59942;49.304;8.256;2022-08-24T07:52:25;100531.28;;;26.34;38.79
57038;BME280;59942;49.304;8.256;2022-08-24T07:54:58;100527.59;;;26.18;40.02
57038;BME280;59942;49.304;8.256;2022-08-24T07:57:28;100525.28;;;26.40;37.00
57038;BME280;59942;49.304;8.256;2022-08-24T08:00:04;100532.47;;;26.81;36.76
57038;BME280;59942;49.304;8.256;2022-08-24T08:02:36;100527.28;;;26.79;37.09
57038;BME280;59942;49.304;8.256;2022-08-24T08:05:04;100530.53;;;25.99;39.19
57038;BME280;59942;49.304;8.256;2022-08-24T08:07:34;100534.06;;;25.04;40.57
57038;BME280;59942;49.304;8.256;2022-08-24T08:10:05;100533.75;;;26.35;38.47
57038;BME280;59942;49.304;8.256;2022-08-24T08:12:36;100537.94;;;26.79;36.15
57038;BME280;59942;49.304;8.256;2022-08-24T08:15:10;100530.81;;;27.52;33.74
57038;BME280;59942;49.304;8.256;2022-08-24T08:17:41;100543.19;;;26.05;39.03
57038;BME280;59942;49.304;8.256;2022-08-24T08:20:21;100537.72;;;27.14;37.54
57038;BME280;59942;49.304;8.256;2022-08-24T08:22:57;100530.94;;;26.21;38.83
57038;BME280;59942;49.304;8.256;2022-08-24T08:25:53;100534.03;;;25.30;36.80
57038;BME280;59942;49.304;8.256;2022-08-24T08:28:23;100536.91;;;25.72;38.92
57038;BME280;59942;49.304;8.256;2022-08-24T08:31:03;100538.75;;;26.30;35.74
57038;BME280;59942;49.304;8.256;2022-08-24T08:33:32;100532.66;;;25.44;36.88
57038;BME280;59942;49.304;8.256;2022-08-24T08:36:08;100540.25;;;26.25;36.98
57038;BME280;59942;49.304;8.256;2022-08-24T08:38:38;100533.75;;;26.19;35.67
57038;BME280;59942;49.304;8.256;2022-08-24T08:42:02;100535.78;;;26.58;35.41
57038;BME280;59942;49.304;8.256;2022-08-24T08:44:32;100533.59;;;25.70;36.11
57038;BME280;59942;49.304;8.256;2022-08-24T08:47:31;100540.97;;;25.23;37.54
57038;BME280;59942;49.304;8.256;2022-08-24T08:50:12;100532.44;;;26.64;38.44
57038;BME280;59942;49.304;8.256;2022-08-24T08:55:48;100538.59;;;28.25;35.71
57038;BME280;59942;49.304;8.256;2022-08-24T09:01:30;100540.28;;;28.87;33.42
57038;BME280;59942;49.304;8.256;2022-08-24T09:07:24;100532.25;;;27.95;32.18
57038;BME280;59942;49.304;8.256;2022-08-24T09:10:08;100537.63;;;29.92;32.69
57038;BME280;59942;49.304;8.256;2022-08-24T09:21:47;100529.44;;;32.18;29.38
57038;BME280;59942;49.304;8.256;2022-08-24T09:30:24;100531.16;;;28.58;31.66
57038;BME280;59942;49.304;8.256;2022-08-24T09:33:07;100532.69;;;30.10;29.19
57038;BME280;59942;49.304;8.256;2022-08-24T09:38:28;100520.72;;;30.78;31.26
57038;BME280;59942;49.304;8.256;2022-08-24T09:41:33;100497.19;;;29.65;29.24
57038;BME280;59942;49.304;8.256;2022-08-24T09:47:42;100523.31;;;29.48;29.07
57038;BME280;59942;49.304;8.256;2022-08-24T09:50:45;100532.34;;;30.63;27.62
57038;BME280;59942;49.304;8.256;2022-08-24T09:56:40;100520.19;;;32.48;29.12
57038;BME280;59942;49.304;8.256;2022-08-24T10:02:17;100523.88;;;32.27;27.26
57038;BME280;59942;49.304;8.256;2022-08-24T10:05:12;100512.16;;;31.24;26.32
57038;BME280;59942;49.304;8.256;2022-08-24T10:08:13;100518.53;;;32.20;27.11
57038;BME280;59942;49.304;8.256;2022-08-24T10:11:05;100506.19;;;31.22;29.79
57038;BME280;59942;49.304;8.256;2022-08-24T10:14:06;100508.09;;;31.77;27.23
57038;BME280;59942;49.304;8.256;2022-08-24T10:25:30;100498.91;;;34.22;26.06
57038;BME280;59942;49.304;8.256;2022-08-24T10:31:42;100500.19;;;30.57;29.73
57038;BME280;59942;49.304;8.256;2022-08-24T10:37:15;100499.75;;;32.60;25.01
57038;BME280;59942;49.304;8.256;2022-08-24T10:42:59;100490.25;;;32.51;27.92
57038;BME280;59942;49.304;8.256;2022-08-24T10:46:14;100483.31;;;31.75;28.25
57038;BME280;59942;49.304;8.256;2022-08-24T10:54:53;100475.41;;;34.61;24.58
57038;BME280;59942;49.304;8.256;2022-08-24T10:57:37;100473.22;;;35.33;21.14
57038;BME280;59942;49.304;8.256;2022-08-24T11:00:07;100480.06;;;31.79;24.09
57038;BME280;59942;49.304;8.256;2022-08-24T11:03:21;100477.91;;;33.35;24.36
57038;BME280;59942;49.304;8.256;2022-08-24T11:05:57;100472.13;;;33.32;25.50
57038;BME280;59942;49.304;8.256;2022-08-24T11:08:51;100478.31;;;33.32;22.38
57038;BME280;59942;49.304;8.256;2022-08-24T11:11:27;100466.66;;;33.52;22.68
57038;BME280;59942;49.304;8.256;2022-08-24T11:14:02;100470.34;;;33.57;25.31
57038;BME280;59942;49.304;8.256;2022-08-24T11:16:38;100466.41;;;33.08;23.36
57038;BME280;59942;49.304;8.256;2022-08-24T11:19:30;100463.69;;;33.21;23.61
57038;BME280;59942;49.304;8.256;2022-08-24T11:22:02;100452.34;;;36.01;20.45
57038;BME280;59942;49.304;8.256;2022-08-24T11:24:41;100452.16;;;37.71;21.32
57038;BME280;59942;49.304;8.256;2022-08-24T11:32:38;100442.88;;;34.63;21.70
57038;BME280;59942;49.304;8.256;2022-08-24T11:37:44;100440.59;;;36.07;22.28
57038;BME280;59942;49.304;8.256;2022-08-24T11:40:12;100425.44;;;35.82;20.18
57038;BME280;59942;49.304;8.256;2022-08-24T11:43:02;100439.59;;;37.48;18.36
57038;BME280;59942;49.304;8.256;2022-08-24T12:02:39;100440.25;;;36.86;21.24
57038;BME280;59942;49.304;8.256;2022-08-24T12:05:22;100426.34;;;35.76;22.15
57038;BME280;59942;49.304;8.256;2022-08-24T12:11:01;100403.13;;;33.19;24.27
57038;BME280;59942;49.304;8.256;2022-08-24T12:13:50;100424.47;;;33.52;22.94
57038;BME280;59942;49.304;8.256;2022-08-24T12:16:44;100428.09;;;33.33;23.43
57038;BME280;59942;49.304;8.256;2022-08-24T12:19:18;100431.72;;;34.41;23.04
57038;BME280;59942;49.304;8.256;2022-08-24T12:21:49;100419.78;;;37.43;20.50
57038;BME280;59942;49.304;8.256;2022-08-24T12:24:44;100423.81;;;38.42;18.32
57038;BME280;59942;49.304;8.256;2022-08-24T12:33:04;100416.22;;;34.11;22.42
57038;BME280;59942;49.304;8.256;2022-08-24T12:35:43;100382.66;;;35.86;20.33
57038;BME280;59942;49.304;8.256;2022-08-24T12:38:25;100367.13;;;37.79;20.55
57038;BME280;59942;49.304;8.256;2022-08-24T12:40:56;100396.09;;;36.92;22.22
57038;BME280;59942;49.304;8.256;2022-08-24T12:43:41;100404.03;;;36.46;21.38
57038;BME280;59942;49.304;8.256;2022-08-24T12:46:12;100398.25;;;37.65;19.35
57038;BME280;59942;49.304;8.256;2022-08-24T12:48:52;100395.78;;;35.52;21.01
57038;BME280;59942;49.304;8.256;2022-08-24T12:51:53;100404.78;;;37.52;19.86
57038;BME280;59942;49.304;8.256;2022-08-24T13:00:40;100403.84;;;33.78;22.59
57038;BME280;59942;49.304;8.256;2022-08-24T13:03:24;100395.41;;;34.87;22.35
57038;BME280;59942;49.304;8.256;2022-08-24T13:05:58;100408.97;;;36.26;19.20
57038;BME280;59942;49.304;8.256;2022-08-24T13:08:38;100386.94;;;34.84;21.77
57038;BME280;59942;49.304;8.256;2022-08-24T13:11:12;100388.41;;;35.47;21.21
57038;BME280;59942;49.304;8.256;2022-08-24T13:17:06;100387.84;;;37.74;19.98
57038;BME280;59942;49.304;8.256;2022-08-24T13:19:40;100392.88;;;35.53;20.26
57038;BME280;59942;49.304;8.256;2022-08-24T13:32:30;100360.50;;;33.93;23.10
57038;BME280;59942;49.304;8.256;2022-08-24T13:34:58;100350.19;;;37.09;19.83
57038;BME280;59942;49.304;8.256;2022-08-24T13:37:27;100366.13;;;39.35;18.38
57038;BME280;59942;49.304;8.256;2022-08-24T13:40:18;100363.31;;;36.24;19.34
57038;BME280;59942;49.304;8.256;2022-08-24T13:43:08;100337.50;;;35.81;21.50
57038;BME280;59942;49.304;8.256;2022-08-24T13:45:54;100363.63;;;35.92;21.45
57038;BME280;59942;49.304;8.256;2022-08-24T13:48:55;100347.97;;;39.68;17.64
57038;BME280;59942;49.304;8.256;2022-08-24T13:51:44;100344.16;;;40.65;16.88
57038;BME280;59942;49.304;8.256;2022-08-24T13:54:30;100347.47;;;39.76;16.98
57038;BME280;59942;49.304;8.256;2022-08-24T14:11:16;100330.34;;;38.84;17.99
57038;BME280;59942;49.304;8.256;2022-08-24T14:16:42;100312.81;;;35.54;19.12
57038;BME280;59942;49.304;8.256;2022-08-24T14:20:29;100326.19;;;34.51;20.43
57038;BME280;59942;49.304;8.256;2022-08-24T14:44:07;100279.84;;;38.28;18.06
57038;BME280;59942;49.304;8.256;2022-08-24T14:55:33;100302.88;;;36.66;19.44
57038;BME280;59942;49.304;8.256;2022-08-24T15:09:46;100291.88;;;35.25;19.03
57038;BME280;59942;49.304;8.256;2022-08-24T15:12:42;100291.97;;;35.61;19.19
57038;BME280;59942;49.304;8.256;2022-08-24T15:15:14;100292.78;;;36.09;19.54
57038;BME280;59942;49.304;8.256;2022-08-24T15:17:57;100287.47;;;35.43;20.15
57038;BME280;59942;49.304;8.256;2022-08-24T15:21:02;100281.41;;;35.17;19.33
57038;BME280;59942;49.304;8.256;2022-08-24T15:26:28;100279.22;;;36.56;19.28
57038;BME280;59942;49.304;8.256;2022-08-24T15:29:19;100280.88;;;36.45;18.88
57038;BME280;59942;49.304;8.256;2022-08-24T15:37:00;100250.50;;;36.96;18.54
57038;BME280;59942;49.304;8.256;2022-08-24T15:39:30;100276.56;;;37.19;18.54
57038;BME280;59942;49.304;8.256;2022-08-24T15:42:05;100266.31;;;34.18;21.42
57038;BME280;59942;49.304;8.256;2022-08-24T15:44:34;100281.03;;;35.32;19.30
57038;BME280;59942;49.304;8.256;2022-08-24T15:47:16;100281.41;;;36.07;19.24
57038;BME280;59942;49.304;8.256;2022-08-24T15:49:46;100283.06;;;35.18;20.22
57038;BME280;59942;49.304;8.256;2022-08-24T15:55:32;100282.06;;;33.71;20.38
57038;BME280;59942;49.304;8.256;2022-08-24T16:03:58;100287.75;;;35.77;18.78
57038;BME280;59942;49.304;8.256;2022-08-24T16:11:37;100281.91;;;35.26;19.96
57038;BME280;59942;49.304;8.256;2022-08-24T16:14:53;100284.34;;;32.78;22.16
57038;BME280;59942;49.304;8.256;2022-08-24T16:17:27;100282.00;;;32.88;21.04
57038;BME280;59942;49.304;8.256;2022-08-24T16:19:59;100282.72;;;33.91;20.19
57038;BME280;59942;49.304;8.256;2022-08-24T16:22:32;100289.47;;;35.47;19.73
57038;BME280;59942;49.304;8.256;2022-08-24T16:25:45;100283.16;;;35.11;19.95
57038;BME280;59942;49.304;8.256;2022-08-24T16:30:58;100280.50;;;33.63;20.33
57038;BME280;59942;49.304;8.256;2022-08-24T16:33:48;100284.47;;;32.45;21.95
57038;BME280;59942;49.304;8.256;2022-08-24T16:36:17;100278.56;;;32.75;22.17
57038;BME280;59942;49.304;8.256;2022-08-24T16:38:50;100272.06;;;34.22;21.37
57038;BME280;59942;49.304;8.256;2022-08-24T16:41:20;100285.81;;;34.51;21.02
57038;BME280;59942;49.304;8.256;2022-08-24T16:43:48;100276.69;;;32.16;22.45
57038;BME280;59942;49.304;8.256;2022-08-24T16:46:21;100282.66;;;32.25;22.77
57038;BME280;59942;49.304;8.256;2022-08-24T16:48:50;100272.88;;;32.51;22.12
57038;BME280;59942;49.304;8.256;2022-08-24T16:51:20;100283.56;;;33.03;21.43
57038;BME280;59942;49.304;8.256;2022-08-24T16:53:51;100280.75;;;33.30;21.16
57038;BME280;59942;49.304;8.256;2022-08-24T16:56:32;100262.81;;;33.99;20.91